createdAt,value
2023-01-19T00:00:34.827Z,43.77
2023-01-19T00:03:03.214Z,38.50
2023-01-19T00:05:30.056Z,35.87
2023-01-19T00:07:56.795Z,36.57
2023-01-19T00:10:23.535Z,34.07
2023-01-19T00:12:50.256Z,34.47
2023-01-19T00:15:16.891Z,35.97
2023-01-19T00:17:43.538Z,32.67
2023-01-19T00:20:10.817Z,28.57
2023-01-19T00:22:37.437Z,30.00
2023-01-19T00:25:04.270Z,32.80
2023-01-19T00:27:34.801Z,30.13
2023-01-19T00:30:02.014Z,32.47
2023-01-19T00:32:28.787Z,30.27
2023-01-19T00:34:55.479Z,31.63
2023-01-19T00:37:22.186Z,30.47
2023-01-19T00:39:48.856Z,31.27
2023-01-19T00:42:34.093Z,29.77
2023-01-19T00:45:00.803Z,35.13
2023-01-19T00:47:27.462Z,37.70
2023-01-19T00:49:54.117Z,36.10
2023-01-19T00:52:20.738Z,34.37
2023-01-19T00:54:47.396Z,39.27
2023-01-19T00:57:15.756Z,33.20
2023-01-19T00:59:42.673Z,32.80
2023-01-19T01:02:09.451Z,35.87
2023-01-19T01:04:36.206Z,34.40
2023-01-19T01:07:03.467Z,35.43
2023-01-19T01:09:30.776Z,39.57
2023-01-19T01:11:57.446Z,36.30
2023-01-19T01:14:24.439Z,34.83
2023-01-19T01:16:51.296Z,39.87
2023-01-19T01:19:18.180Z,41.43
2023-01-19T01:21:44.812Z,41.37
2023-01-19T01:24:11.703Z,48.80
2023-01-19T01:26:38.437Z,41.37
2023-01-19T01:29:06.486Z,49.03
2023-01-19T01:31:33.211Z,52.50
2023-01-19T01:33:59.943Z,58.27
2023-01-19T01:36:29.157Z,52.70
2023-01-19T01:38:55.900Z,60.23
2023-01-19T01:41:25.490Z,54.60
2023-01-19T01:43:58.554Z,55.37
2023-01-19T01:46:26.894Z,55.20
2023-01-19T01:49:10.473Z,51.83
2023-01-19T01:51:42.315Z,49.70
2023-01-19T01:54:32.176Z,47.37
2023-01-19T01:57:03.189Z,47.00
2023-01-19T01:59:39.288Z,48.50
2023-01-19T02:02:28.930Z,46.20
2023-01-19T02:05:04.093Z,46.23
2023-01-19T02:08:12.933Z,37.27
2023-01-19T02:10:59.789Z,44.00
2023-01-19T02:13:29.170Z,38.07
2023-01-19T02:15:59.242Z,39.30
2023-01-19T02:18:29.187Z,37.30
2023-01-19T02:21:26.579Z,33.73
2023-01-19T02:23:55.784Z,33.60
2023-01-19T02:26:25.144Z,35.10
2023-01-19T02:29:02.109Z,29.27
2023-01-19T02:31:30.753Z,29.20
2023-01-19T02:33:59.844Z,22.33
2023-01-19T02:36:32.399Z,22.93
2023-01-19T02:39:01.280Z,21.27
2023-01-19T02:41:33.012Z,19.97
2023-01-19T02:44:01.016Z,20.00
2023-01-19T02:46:27.859Z,17.70
2023-01-19T02:48:59.160Z,20.23
2023-01-19T02:51:26.867Z,18.17
2023-01-19T02:54:17.863Z,18.40
2023-01-19T02:57:09.679Z,18.60
2023-01-19T03:00:12.848Z,19.27
2023-01-19T03:03:06.211Z,19.03
2023-01-19T03:05:57.072Z,15.83
2023-01-19T03:08:26.787Z,18.57
2023-01-19T03:11:09.463Z,19.03
2023-01-19T03:13:56.323Z,18.37
2023-01-19T03:16:41.081Z,18.97
2023-01-19T03:19:27.517Z,20.83
2023-01-19T03:22:09.415Z,21.57
2023-01-19T03:24:40.071Z,21.73
2023-01-19T03:27:13.698Z,17.93
2023-01-19T03:29:45.888Z,18.03
2023-01-19T03:32:16.279Z,18.17
2023-01-19T03:34:44.058Z,16.80
2023-01-19T03:37:13.949Z,17.90
2023-01-19T03:39:42.166Z,16.77
2023-01-19T03:42:14.009Z,16.93
2023-01-19T03:44:43.739Z,17.83
2023-01-19T03:47:13.382Z,16.20
2023-01-19T03:49:43.046Z,17.60
2023-01-19T03:52:10.448Z,14.00
2023-01-19T03:54:37.334Z,13.73
2023-01-19T03:57:04.407Z,16.70
2023-01-19T03:59:31.050Z,14.77
2023-01-19T04:01:57.892Z,14.30
2023-01-19T04:04:25.609Z,15.77
2023-01-19T04:06:52.298Z,16.80
2023-01-19T04:09:20.067Z,12.43
2023-01-19T04:11:46.895Z,14.40
2023-01-19T04:14:13.865Z,14.10
2023-01-19T04:16:40.515Z,11.73
2023-01-19T04:19:07.154Z,12.13
2023-01-19T04:21:33.831Z,19.37
2023-01-19T04:24:01.106Z,10.53
2023-01-19T04:26:28.202Z,9.93
2023-01-19T04:28:54.878Z,11.40
2023-01-19T04:31:23.265Z,8.93
2023-01-19T04:33:50.242Z,14.07
2023-01-19T04:36:17.357Z,9.83
2023-01-19T04:38:46.561Z,8.30
2023-01-19T04:41:13.244Z,13.97
2023-01-19T04:43:39.901Z,9.43
2023-01-19T04:46:07.110Z,9.97
2023-01-19T04:48:33.790Z,18.83
2023-01-19T04:51:00.496Z,11.53
2023-01-19T04:53:27.192Z,13.37
2023-01-19T04:55:55.122Z,7.60
2023-01-19T04:58:21.802Z,7.47
2023-01-19T05:00:48.580Z,6.13
2023-01-19T05:03:15.349Z,9.37
2023-01-19T05:05:42.020Z,10.87
2023-01-19T05:08:08.669Z,6.83
2023-01-19T05:10:36.551Z,7.37
2023-01-19T05:13:04.241Z,8.63
2023-01-19T05:15:31.166Z,7.50
2023-01-19T05:18:00.644Z,12.20
2023-01-19T05:20:27.388Z,8.93
2023-01-19T05:22:54.161Z,14.83
2023-01-19T05:25:20.974Z,9.03
2023-01-19T05:27:47.733Z,7.53
2023-01-19T05:30:14.783Z,9.40
2023-01-19T05:32:41.484Z,11.50
2023-01-19T05:35:08.599Z,10.40
2023-01-19T05:37:35.332Z,10.00
2023-01-19T05:40:01.993Z,12.50
2023-01-19T05:42:29.537Z,13.53
2023-01-19T05:44:56.997Z,6.50
2023-01-19T05:47:23.649Z,8.70
2023-01-19T05:49:50.284Z,11.53
2023-01-19T05:52:16.928Z,7.30
2023-01-19T05:54:43.559Z,14.47
2023-01-19T05:57:10.724Z,11.93
2023-01-19T05:59:37.532Z,6.30
2023-01-19T06:02:04.288Z,9.73
2023-01-19T06:04:30.978Z,5.20
2023-01-19T06:06:57.764Z,11.37
2023-01-19T06:09:24.448Z,12.00
2023-01-19T06:11:54.124Z,8.13
2023-01-19T06:14:20.947Z,15.57
2023-01-19T06:16:47.973Z,10.30
2023-01-19T06:19:15.078Z,11.43
2023-01-19T06:21:41.846Z,11.80
2023-01-19T06:24:09.896Z,9.60
2023-01-19T06:26:37.357Z,12.40
2023-01-19T06:29:04.024Z,17.93
2023-01-19T06:31:30.753Z,16.10
2023-01-19T06:33:57.436Z,12.00
2023-01-19T06:36:24.277Z,18.67
2023-01-19T06:38:50.985Z,12.40
2023-01-19T06:41:17.611Z,16.53
2023-01-19T06:43:44.248Z,11.33
2023-01-19T06:46:10.922Z,17.38
2023-01-19T06:48:37.563Z,23.20
2023-01-19T06:51:05.871Z,14.70
2023-01-19T06:53:33.195Z,13.60
2023-01-19T06:56:01.658Z,16.63
2023-01-19T06:58:29.414Z,20.90
2023-01-19T07:01:00.538Z,15.73
2023-01-19T07:03:27.355Z,17.87
2023-01-19T07:05:54.114Z,18.40
2023-01-19T07:08:21.085Z,22.13
2023-01-19T07:11:25.749Z,16.87
2023-01-19T07:13:36.176Z,22.33
2023-01-19T07:16:07.477Z,18.60
2023-01-19T07:18:35.659Z,15.93
2023-01-19T07:21:02.484Z,24.63
2023-01-19T07:23:32.136Z,19.60
2023-01-19T07:26:00.981Z,26.17
2023-01-19T07:28:31.684Z,13.13
2023-01-19T07:31:01.591Z,24.93
2023-01-19T07:33:29.205Z,23.43
2023-01-19T07:35:55.881Z,17.43
2023-01-19T07:38:22.815Z,21.17
2023-01-19T07:40:49.517Z,23.27
2023-01-19T07:43:16.375Z,13.10
2023-01-19T07:45:44.938Z,15.33
2023-01-19T07:48:11.709Z,15.70
2023-01-19T07:50:38.519Z,14.27
2023-01-19T07:53:07.399Z,17.73
2023-01-19T07:55:34.575Z,17.07
2023-01-19T07:58:01.408Z,18.27
2023-01-19T08:00:28.124Z,42.83
2023-01-19T08:03:00.190Z,13.67
2023-01-19T08:05:29.166Z,14.40
2023-01-19T08:07:57.613Z,25.97
2023-01-19T08:10:26.681Z,24.47
2023-01-19T08:12:54.515Z,19.67
2023-01-19T08:15:24.877Z,18.70
2023-01-19T08:17:56.459Z,18.63
2023-01-19T08:20:23.336Z,23.03
2023-01-19T08:22:50.142Z,16.13
2023-01-19T08:25:16.953Z,26.50
2023-01-19T08:27:44.560Z,35.83
2023-01-19T08:30:11.721Z,28.47
2023-01-19T08:32:38.415Z,21.97
2023-01-19T08:35:06.143Z,29.47
2023-01-19T08:37:34.295Z,29.07
2023-01-19T08:40:01.053Z,22.87
2023-01-19T08:42:28.075Z,15.70
2023-01-19T08:44:58.535Z,19.30
2023-01-19T08:47:25.400Z,20.60
2023-01-19T08:49:52.097Z,22.53
2023-01-19T08:52:18.803Z,18.53
2023-01-19T08:54:45.426Z,21.33
2023-01-19T08:57:12.154Z,17.60
2023-01-19T08:59:38.791Z,21.70
2023-01-19T09:02:05.456Z,19.87
2023-01-19T09:04:34.491Z,23.40
2023-01-19T09:07:01.132Z,23.00
2023-01-19T09:09:27.778Z,13.17
2023-01-19T09:11:55.581Z,14.47
2023-01-19T09:14:22.211Z,11.67
2023-01-19T09:16:48.894Z,18.43
2023-01-19T09:19:15.537Z,25.73
2023-01-19T09:21:42.194Z,16.10
2023-01-19T09:24:09.288Z,17.70
2023-01-19T09:26:36.788Z,14.40
2023-01-19T09:29:03.473Z,14.17
2023-01-19T09:31:30.183Z,16.97
2023-01-19T09:33:56.947Z,14.37
2023-01-19T09:36:23.630Z,21.10
2023-01-19T09:38:50.289Z,22.90
2023-01-19T09:41:22.128Z,17.73
2023-01-19T09:43:55.454Z,18.73
2023-01-19T09:46:51.975Z,16.87
2023-01-19T09:49:31.262Z,20.97
2023-01-19T09:51:59.245Z,22.23
2023-01-19T09:54:40.951Z,24.10
2023-01-19T09:57:12.142Z,19.43
2023-01-19T09:59:39.415Z,26.03
2023-01-19T10:02:23.389Z,23.30
2023-01-19T10:05:17.751Z,16.10
2023-01-19T10:07:58.320Z,23.80
2023-01-19T10:10:34.359Z,22.80
2023-01-19T10:13:34.089Z,17.83
2023-01-19T10:16:43.110Z,23.73
2023-01-19T10:19:23.772Z,17.70
2023-01-19T10:21:51.474Z,19.53
2023-01-19T10:24:29.512Z,23.80
2023-01-19T10:26:56.946Z,20.17
2023-01-19T10:29:37.797Z,15.87
2023-01-19T10:32:21.166Z,18.30
2023-01-19T10:34:49.332Z,15.07
2023-01-19T10:37:30.614Z,21.53
2023-01-19T10:40:11.943Z,16.07
2023-01-19T10:42:40.974Z,18.67
2023-01-19T10:45:36.728Z,15.73
2023-01-19T10:48:07.230Z,16.13
2023-01-19T10:50:40.740Z,14.53
2023-01-19T10:53:22.335Z,14.27
2023-01-19T10:56:13.676Z,15.73
2023-01-19T10:58:40.745Z,16.40
2023-01-19T11:01:29.850Z,15.53
2023-01-19T11:04:05.438Z,10.80
2023-01-19T11:06:34.288Z,19.60
2023-01-19T11:09:22.150Z,12.93
2023-01-19T11:11:52.044Z,13.93
2023-01-19T11:14:22.723Z,17.50
2023-01-19T11:16:55.777Z,16.93
2023-01-19T11:19:31.261Z,16.27
2023-01-19T11:22:21.799Z,14.33
2023-01-19T11:24:49.675Z,14.67
2023-01-19T11:27:18.167Z,10.07
2023-01-19T11:29:53.903Z,14.90
2023-01-19T11:32:22.628Z,8.60
2023-01-19T11:34:53.140Z,9.50
2023-01-19T11:37:19.725Z,16.00
2023-01-19T11:39:49.169Z,11.20
2023-01-19T11:42:17.634Z,9.53
2023-01-19T11:45:17.043Z,9.97
2023-01-19T11:47:52.524Z,11.20
2023-01-19T11:50:33.186Z,14.87
2023-01-19T11:53:06.857Z,5.03
2023-01-19T11:55:34.097Z,10.27
2023-01-19T11:58:02.773Z,9.90
2023-01-19T12:00:36.130Z,7.90
2023-01-19T12:03:25.297Z,7.67
2023-01-19T12:05:55.308Z,10.50
2023-01-19T12:08:26.930Z,8.97
2023-01-19T12:10:56.880Z,11.20
2023-01-19T12:13:26.055Z,5.70
2023-01-19T12:16:00.986Z,8.77
2023-01-19T12:18:36.902Z,6.93
2023-01-19T12:21:04.269Z,10.10
2023-01-19T12:23:41.225Z,9.87
2023-01-19T12:26:16.923Z,7.53
2023-01-19T12:28:47.979Z,7.67
2023-01-19T12:31:18.128Z,12.83
2023-01-19T12:33:45.157Z,9.20
2023-01-19T12:36:29.977Z,6.27
2023-01-19T12:39:16.769Z,6.40
2023-01-19T12:41:44.050Z,10.20
2023-01-19T12:44:10.913Z,10.77
2023-01-19T12:46:46.917Z,5.50
2023-01-19T12:49:31.482Z,5.37
2023-01-19T12:52:25.260Z,5.00
2023-01-19T12:55:13.787Z,4.40
2023-01-19T12:58:02.376Z,7.90
2023-01-19T13:00:37.673Z,6.97
2023-01-19T13:03:16.467Z,8.70
2023-01-19T13:05:43.069Z,7.63
2023-01-19T13:08:09.700Z,8.63
2023-01-19T13:11:00.780Z,4.90
2023-01-19T13:13:37.846Z,5.60
2023-01-19T13:16:20.093Z,6.97
2023-01-19T13:18:48.518Z,9.57
2023-01-19T13:21:26.928Z,4.67
2023-01-19T13:23:59.452Z,8.07
2023-01-19T13:26:30.450Z,6.90
2023-01-19T13:29:06.519Z,7.27
2023-01-19T13:31:42.637Z,10.47
2023-01-19T13:34:15.870Z,5.37
2023-01-19T13:36:46.030Z,7.63
2023-01-19T13:39:36.874Z,4.77
2023-01-19T13:42:29.534Z,7.23
2023-01-19T13:44:59.989Z,6.67
2023-01-19T13:47:39.059Z,4.43
2023-01-19T13:50:06.329Z,8.87
2023-01-19T13:52:33.155Z,5.57
2023-01-19T13:55:03.663Z,4.80
2023-01-19T13:57:33.732Z,7.97
2023-01-19T14:00:12.814Z,4.03
2023-01-19T14:02:52.947Z,10.20
2023-01-19T14:05:22.558Z,8.07
2023-01-19T14:08:08.612Z,5.53
2023-01-19T14:10:36.892Z,5.90
2023-01-19T14:13:12.954Z,6.47
2023-01-19T14:15:40.731Z,4.47
2023-01-19T14:18:11.796Z,4.63
2023-01-19T14:20:39.042Z,6.67
2023-01-19T14:23:07.299Z,6.00
2023-01-19T14:25:36.371Z,5.90
2023-01-19T14:28:35.590Z,7.97
2023-01-19T14:31:17.369Z,5.17
2023-01-19T14:33:46.911Z,4.47
2023-01-19T14:36:27.355Z,5.37
2023-01-19T14:38:56.149Z,8.07
2023-01-19T14:41:34.614Z,7.80
2023-01-19T14:44:02.373Z,4.00
2023-01-19T14:46:29.492Z,5.30
2023-01-19T14:49:02.718Z,5.17
2023-01-19T14:51:30.472Z,4.67
2023-01-19T14:53:59.543Z,4.27
2023-01-19T14:56:29.678Z,7.27
2023-01-19T14:58:57.967Z,3.87
2023-01-19T15:01:28.419Z,5.63
2023-01-19T15:03:58.368Z,4.57
2023-01-19T15:06:26.312Z,6.60
2023-01-19T15:08:53.664Z,5.10
2023-01-19T15:11:29.797Z,6.73
2023-01-19T15:13:56.491Z,6.33
2023-01-19T15:16:24.216Z,2.07
2023-01-19T15:18:50.934Z,2.80
2023-01-19T15:21:20.442Z,3.83
2023-01-19T15:23:50.345Z,5.90
2023-01-19T15:26:19.220Z,6.93
2023-01-19T15:28:46.908Z,5.13
2023-01-19T15:31:16.279Z,4.87
2023-01-19T15:33:43.551Z,5.03
2023-01-19T15:36:21.785Z,3.63
2023-01-19T15:38:51.025Z,3.67
2023-01-19T15:41:27.552Z,4.87
2023-01-19T15:43:54.223Z,7.63
2023-01-19T15:46:21.705Z,4.20
2023-01-19T15:48:49.591Z,4.40
2023-01-19T15:51:19.285Z,6.50
2023-01-19T15:53:46.462Z,2.93
2023-01-19T15:56:25.087Z,7.03
2023-01-19T15:58:52.838Z,4.97
2023-01-19T16:01:24.841Z,3.43
2023-01-19T16:03:51.647Z,4.53
2023-01-19T16:06:18.432Z,6.13
2023-01-19T16:08:45.356Z,8.80
2023-01-19T16:11:14.429Z,6.17
2023-01-19T16:13:45.224Z,5.40
2023-01-19T16:16:18.095Z,4.97
2023-01-19T16:18:45.569Z,8.27
2023-01-19T16:21:12.730Z,6.23
2023-01-19T16:23:39.591Z,7.87
2023-01-19T16:26:22.636Z,6.77
2023-01-19T16:28:49.445Z,7.77
2023-01-19T16:31:16.656Z,5.63
2023-01-19T16:33:44.893Z,7.90
2023-01-19T16:36:31.824Z,7.97
2023-01-19T16:39:06.891Z,5.87
2023-01-19T16:41:34.781Z,4.80
2023-01-19T16:44:01.512Z,8.10
2023-01-19T16:46:32.553Z,4.93
2023-01-19T16:49:01.333Z,7.83
2023-01-19T16:51:28.167Z,9.50
2023-01-19T16:53:54.930Z,9.80
2023-01-19T16:56:21.598Z,11.43
2023-01-19T16:58:48.377Z,10.47
2023-01-19T17:01:19.886Z,8.17
2023-01-19T17:03:47.434Z,7.87
2023-01-19T17:06:18.250Z,10.93
2023-01-19T17:08:45.083Z,8.67
2023-01-19T17:11:23.364Z,11.23
2023-01-19T17:14:01.460Z,13.23
2023-01-19T17:16:30.323Z,6.00
2023-01-19T17:18:58.666Z,18.83
2023-01-19T17:21:25.549Z,12.40
2023-01-19T17:23:54.299Z,12.90
2023-01-19T17:26:21.724Z,14.67
2023-01-19T17:28:48.401Z,10.20
2023-01-19T17:31:17.905Z,11.40
2023-01-19T17:33:46.431Z,10.33
2023-01-19T17:36:16.640Z,16.10
2023-01-19T17:38:43.319Z,14.17
2023-01-19T17:41:17.714Z,11.17
2023-01-19T17:43:44.977Z,22.07
2023-01-19T17:46:12.172Z,18.83
2023-01-19T17:48:41.937Z,23.33
2023-01-19T17:51:11.268Z,53.97
2023-01-19T17:53:44.911Z,30.30
2023-01-19T17:56:13.990Z,11.97
2023-01-19T17:58:41.123Z,9.73
2023-01-19T18:01:15.941Z,9.53
2023-01-19T18:03:43.063Z,10.07
2023-01-19T18:06:10.340Z,9.57
2023-01-19T18:08:41.993Z,16.37
2023-01-19T18:11:10.272Z,15.83
2023-01-19T18:13:39.188Z,17.27
2023-01-19T18:16:11.678Z,19.60
2023-01-19T18:18:38.781Z,22.33
2023-01-19T18:21:08.601Z,29.23
2023-01-19T18:23:35.733Z,19.13
2023-01-19T18:26:08.851Z,16.03
2023-01-19T18:28:36.111Z,17.53
2023-01-19T18:31:06.506Z,17.13
2023-01-19T18:33:34.038Z,19.30
2023-01-19T18:36:01.197Z,24.00
2023-01-19T18:38:27.973Z,23.43
2023-01-19T18:41:11.772Z,28.63
2023-01-19T18:43:39.213Z,29.83
2023-01-19T18:46:06.614Z,31.13
2023-01-19T18:48:33.887Z,37.50
2023-01-19T18:51:04.458Z,41.17
2023-01-19T18:53:32.164Z,33.67
2023-01-19T18:55:59.733Z,36.43
2023-01-19T18:58:29.759Z,38.50
2023-01-19T19:00:56.930Z,42.97
2023-01-19T19:03:24.193Z,42.07
2023-01-19T19:05:50.903Z,39.40
2023-01-19T19:08:17.716Z,53.77
2023-01-19T19:10:44.813Z,45.87
2023-01-19T19:13:13.161Z,49.50
2023-01-19T19:15:39.858Z,46.90
2023-01-19T19:18:08.899Z,58.17
2023-01-19T19:20:38.474Z,59.23
2023-01-19T19:23:05.158Z,64.90
2023-01-19T19:25:32.609Z,62.07
2023-01-19T19:27:59.264Z,58.43
2023-01-19T19:30:25.970Z,60.13
2023-01-19T19:32:56.437Z,73.23
2023-01-19T19:35:24.163Z,73.40
2023-01-19T19:37:51.548Z,64.60
2023-01-19T19:40:18.321Z,64.03
2023-01-19T19:42:45.011Z,67.33
2023-01-19T19:45:12.256Z,64.43
2023-01-19T19:47:39.215Z,79.27
2023-01-19T19:50:06.242Z,67.23
2023-01-19T19:52:38.297Z,76.37
2023-01-19T19:55:06.434Z,74.97
2023-01-19T19:57:33.178Z,78.23
2023-01-19T19:59:59.879Z,66.97
2023-01-19T20:02:26.565Z,73.67
2023-01-19T20:04:53.224Z,76.73
2023-01-19T20:07:19.884Z,75.33
2023-01-19T20:09:46.581Z,77.40
2023-01-19T20:12:13.215Z,76.30
2023-01-19T20:14:39.857Z,70.30
2023-01-19T20:17:06.525Z,65.40
2023-01-19T20:19:33.215Z,58.63
2023-01-19T20:21:59.861Z,51.80
2023-01-19T20:24:26.483Z,51.20
2023-01-19T20:26:53.361Z,46.03
2023-01-19T20:29:20.329Z,46.17
2023-01-19T20:31:50.355Z,48.50
2023-01-19T20:34:20.755Z,50.47
2023-01-19T20:36:49.741Z,41.63
2023-01-19T20:39:18.034Z,40.20
2023-01-19T20:41:45.544Z,39.73
2023-01-19T20:44:14.597Z,42.67
2023-01-19T20:46:41.386Z,35.23
2023-01-19T20:49:08.085Z,33.67
2023-01-19T20:51:35.981Z,31.67
2023-01-19T20:54:03.184Z,28.17
2023-01-19T20:56:29.857Z,29.87
2023-01-19T20:58:58.961Z,25.77
2023-01-19T21:01:26.301Z,28.93
2023-01-19T21:03:53.034Z,25.00
2023-01-19T21:06:21.241Z,26.23
2023-01-19T21:08:51.561Z,24.67
2023-01-19T21:11:20.879Z,27.60
2023-01-19T21:13:48.794Z,28.07
2023-01-19T21:16:15.755Z,28.00
2023-01-19T21:18:42.803Z,26.37
2023-01-19T21:21:17.823Z,28.00
2023-01-19T21:24:02.511Z,23.07
2023-01-19T21:26:30.179Z,20.03
2023-01-19T21:29:01.627Z,23.13
2023-01-19T21:31:28.698Z,19.97
2023-01-19T21:33:56.466Z,23.57
2023-01-19T21:36:23.913Z,20.30
2023-01-19T21:38:51.442Z,22.90
2023-01-19T21:41:20.507Z,19.30
2023-01-19T21:43:50.163Z,27.30
2023-01-19T21:46:18.558Z,26.47
2023-01-19T21:48:45.944Z,29.20
2023-01-19T21:51:13.609Z,35.47
2023-01-19T21:53:40.928Z,34.90
2023-01-19T21:56:09.429Z,39.73
2023-01-19T21:58:36.354Z,39.57
2023-01-19T22:01:06.394Z,49.47
2023-01-19T22:03:33.279Z,45.27
2023-01-19T22:06:07.839Z,40.33
2023-01-19T22:08:34.905Z,41.47
2023-01-19T22:11:05.475Z,39.47
2023-01-19T22:13:33.217Z,43.87
2023-01-19T22:16:04.802Z,34.63
2023-01-19T22:18:31.512Z,34.17
2023-01-19T22:21:11.031Z,37.37
2023-01-19T22:23:38.244Z,34.20
2023-01-19T22:26:05.874Z,35.47
2023-01-19T22:28:32.632Z,39.37
2023-01-19T22:31:10.921Z,36.07
2023-01-19T22:33:37.630Z,38.43
2023-01-19T22:36:13.671Z,39.53
2023-01-19T22:38:40.662Z,33.80
2023-01-19T22:41:34.567Z,37.17
2023-01-19T22:44:03.663Z,35.57
2023-01-19T22:46:32.476Z,30.87
2023-01-19T22:48:59.519Z,34.93
2023-01-19T22:51:27.342Z,32.73
2023-01-19T22:53:54.048Z,32.43
2023-01-19T22:56:23.272Z,35.77
2023-01-19T22:58:51.053Z,33.20
2023-01-19T23:01:20.739Z,32.30
2023-01-19T23:03:47.624Z,32.10
2023-01-19T23:06:20.327Z,37.83
2023-01-19T23:08:47.278Z,37.13
2023-01-19T23:11:36.028Z,39.33
2023-01-19T23:14:04.127Z,29.47
2023-01-19T23:16:32.852Z,33.60
2023-01-19T23:19:00.456Z,38.10
2023-01-19T23:21:32.651Z,37.97
2023-01-19T23:24:01.605Z,33.80
2023-01-19T23:26:30.861Z,37.53
2023-01-19T23:29:00.386Z,35.77
2023-01-19T23:31:30.143Z,35.73
2023-01-19T23:33:59.432Z,30.57
2023-01-19T23:36:27.934Z,36.83
2023-01-19T23:38:57.231Z,32.43
2023-01-19T23:41:25.529Z,30.43
2023-01-19T23:43:52.207Z,29.53
2023-01-19T23:46:20.195Z,28.80
2023-01-19T23:48:47.107Z,26.47
2023-01-19T23:51:23.350Z,20.27
2023-01-19T23:53:51.165Z,25.30
2023-01-19T23:56:19.703Z,24.10
2023-01-19T23:58:51.617Z,23.97
